sensor_id;sensor_type;location;lat;lon;timestamp;pressure;altitude;pressure_sealevel;temperature;humidity
19005;BME280;9635;52.078;8.648;2023-04-21T00:03:49;100367.78;;;8.84;73.06
19005;BME280;9635;52.078;8.648;2023-04-21T00:08:52;100360.63;;;8.85;73.15
19005;BME280;9635;52.078;8.648;2023-04-21T00:13:56;100374.00;;;8.85;73.03
19005;BME280;9635;52.078;8.648;2023-04-21T00:18:59;100366.75;;;8.74;73.97
19005;BME280;9635;52.078;8.648;2023-04-21T00:24:03;100362.53;;;8.83;73.69
19005;BME280;9635;52.078;8.648;2023-04-21T00:29:07;100359.44;;;8.89;73.39
19005;BME280;9635;52.078;8.648;2023-04-21T00:34:10;100353.59;;;8.95;73.34
19005;BME280;9635;52.078;8.648;2023-04-21T00:39:13;100348.25;;;8.95;73.35
19005;BME280;9635;52.078;8.648;2023-04-21T00:44:18;100355.94;;;9.00;73.21
19005;BME280;9635;52.078;8.648;2023-04-21T00:49:21;100358.88;;;8.97;73.06
19005;BME280;9635;52.078;8.648;2023-04-21T00:54:26;100349.94;;;8.96;72.96
19005;BME280;9635;52.078;8.648;2023-04-21T00:59:30;100346.03;;;8.89;72.98
19005;BME280;9635;52.078;8.648;2023-04-21T01:04:33;100343.47;;;8.88;73.80
19005;BME280;9635;52.078;8.648;2023-04-21T01:09:40;100345.94;;;9.02;73.08
19005;BME280;9635;52.078;8.648;2023-04-21T01:14:44;100342.38;;;9.14;72.16
19005;BME280;9635;52.078;8.648;2023-04-21T01:19:47;100343.31;;;9.13;72.23
19005;BME280;9635;52.078;8.648;2023-04-21T01:24:53;100346.75;;;9.15;72.36
19005;BME280;9635;52.078;8.648;2023-04-21T01:29:56;100352.28;;;9.25;71.50
19005;BME280;9635;52.078;8.648;2023-04-21T01:35:01;100344.84;;;9.28;71.35
19005;BME280;9635;52.078;8.648;2023-04-21T01:40:07;100347.38;;;9.19;71.30
19005;BME280;9635;52.078;8.648;2023-04-21T01:45:11;100340.97;;;9.33;71.00
19005;BME280;9635;52.078;8.648;2023-04-21T01:50:14;100338.97;;;9.23;71.11
19005;BME280;9635;52.078;8.648;2023-04-21T01:55:19;100341.16;;;9.18;70.88
19005;BME280;9635;52.078;8.648;2023-04-21T02:00:22;100334.69;;;9.21;71.04
19005;BME280;9635;52.078;8.648;2023-04-21T02:05:25;100343.44;;;9.12;71.24
19005;BME280;9635;52.078;8.648;2023-04-21T02:10:30;100341.00;;;9.09;71.38
19005;BME280;9635;52.078;8.648;2023-04-21T02:15:33;100328.28;;;8.99;71.48
19005;BME280;9635;52.078;8.648;2023-04-21T02:20:37;100330.41;;;8.83;71.85
19005;BME280;9635;52.078;8.648;2023-04-21T02:25:41;100325.50;;;9.01;71.77
19005;BME280;9635;52.078;8.648;2023-04-21T02:30:46;100323.06;;;8.98;71.72
19005;BME280;9635;52.078;8.648;2023-04-21T02:35:49;100323.13;;;8.85;71.64
19005;BME280;9635;52.078;8.648;2023-04-21T02:40:53;100323.56;;;8.79;72.21
19005;BME280;9635;52.078;8.648;2023-04-21T02:45:56;100319.91;;;8.80;71.77
19005;BME280;9635;52.078;8.648;2023-04-21T02:50:59;100338.16;;;8.75;72.19
19005;BME280;9635;52.078;8.648;2023-04-21T02:56:03;100341.81;;;8.74;71.90
19005;BME280;9635;52.078;8.648;2023-04-21T03:01:06;100347.63;;;8.68;71.83
19005;BME280;9635;52.078;8.648;2023-04-21T03:06:09;100341.97;;;8.59;71.96
19005;BME280;9635;52.078;8.648;2023-04-21T03:11:14;100333.97;;;8.47;72.15
19005;BME280;9635;52.078;8.648;2023-04-21T03:16:17;100338.06;;;8.39;72.41
19005;BME280;9635;52.078;8.648;2023-04-21T03:21:20;100346.50;;;8.33;72.56
19005;BME280;9635;52.078;8.648;2023-04-21T03:26:24;100337.97;;;8.28;72.76
19005;BME280;9635;52.078;8.648;2023-04-21T03:31:27;100336.47;;;8.24;72.94
19005;BME280;9635;52.078;8.648;2023-04-21T03:36:30;100347.50;;;8.20;72.82
19005;BME280;9635;52.078;8.648;2023-04-21T03:41:35;100349.78;;;8.13;73.09
19005;BME280;9635;52.078;8.648;2023-04-21T03:46:38;100349.66;;;8.14;73.14
19005;BME280;9635;52.078;8.648;2023-04-21T03:51:41;100350.63;;;8.13;73.16
19005;BME280;9635;52.078;8.648;2023-04-21T03:56:45;100345.50;;;8.10;73.27
19005;BME280;9635;52.078;8.648;2023-04-21T04:01:48;100344.66;;;8.10;73.53
19005;BME280;9635;52.078;8.648;2023-04-21T04:06:50;100344.50;;;8.11;73.52
19005;BME280;9635;52.078;8.648;2023-04-21T04:11:55;100345.72;;;8.20;73.83
19005;BME280;9635;52.078;8.648;2023-04-21T04:16:58;100337.31;;;8.25;73.64
19005;BME280;9635;52.078;8.648;2023-04-21T04:22:01;100334.00;;;8.34;73.57
19005;BME280;9635;52.078;8.648;2023-04-21T04:27:05;100334.41;;;8.40;73.58
19005;BME280;9635;52.078;8.648;2023-04-21T04:32:08;100333.75;;;8.50;73.47
19005;BME280;9635;52.078;8.648;2023-04-21T04:37:11;100333.53;;;8.53;73.58
19005;BME280;9635;52.078;8.648;2023-04-21T04:42:16;100330.66;;;8.56;73.00
19005;BME280;9635;52.078;8.648;2023-04-21T04:47:20;100334.50;;;8.52;72.86
19005;BME280;9635;52.078;8.648;2023-04-21T04:52:23;100338.78;;;8.54;73.08
19005;BME280;9635;52.078;8.648;2023-04-21T04:57:28;100351.84;;;8.59;72.81
19005;BME280;9635;52.078;8.648;2023-04-21T05:02:32;100344.88;;;8.56;72.70
19005;BME280;9635;52.078;8.648;2023-04-21T05:07:35;100343.81;;;8.59;72.59
19005;BME280;9635;52.078;8.648;2023-04-21T05:12:39;100352.97;;;8.68;72.53
19005;BME280;9635;52.078;8.648;2023-04-21T05:17:42;100360.84;;;8.82;72.42
19005;BME280;9635;52.078;8.648;2023-04-21T05:22:45;100357.97;;;8.96;71.95
19005;BME280;9635;52.078;8.648;2023-04-21T05:27:49;100362.31;;;9.10;71.29
19005;BME280;9635;52.078;8.648;2023-04-21T05:32:52;100363.34;;;9.20;70.96
19005;BME280;9635;52.078;8.648;2023-04-21T05:37:55;100372.53;;;9.40;70.26
19005;BME280;9635;52.078;8.648;2023-04-21T05:42:59;100373.84;;;9.70;69.38
19005;BME280;9635;52.078;8.648;2023-04-21T05:48:03;100369.34;;;9.82;68.70
19005;BME280;9635;52.078;8.648;2023-04-21T05:53:06;100370.13;;;10.06;68.13
19005;BME280;9635;52.078;8.648;2023-04-21T05:58:10;100367.94;;;10.11;67.53
19005;BME280;9635;52.078;8.648;2023-04-21T06:03:13;100369.28;;;10.17;67.43
19005;BME280;9635;52.078;8.648;2023-04-21T06:08:16;100370.63;;;10.45;66.60
19005;BME280;9635;52.078;8.648;2023-04-21T06:13:20;100364.22;;;10.69;66.03
19005;BME280;9635;52.078;8.648;2023-04-21T06:18:25;100361.56;;;11.01;65.35
19005;BME280;9635;52.078;8.648;2023-04-21T06:23:28;100366.75;;;11.25;63.76
19005;BME280;9635;52.078;8.648;2023-04-21T06:28:33;100364.19;;;11.65;62.71
19005;BME280;9635;52.078;8.648;2023-04-21T06:33:37;100366.50;;;11.91;62.34
19005;BME280;9635;52.078;8.648;2023-04-21T06:38:39;100360.75;;;12.05;61.29
19005;BME280;9635;52.078;8.648;2023-04-21T06:43:45;100357.09;;;12.37;61.50
19005;BME280;9635;52.078;8.648;2023-04-21T06:48:48;100344.97;;;12.72;60.64
19005;BME280;9635;52.078;8.648;2023-04-21T06:53:50;100352.94;;;12.93;60.04
19005;BME280;9635;52.078;8.648;2023-04-21T06:58:55;100352.22;;;13.30;59.02
19005;BME280;9635;52.078;8.648;2023-04-21T07:03:58;100351.69;;;13.36;57.68
19005;BME280;9635;52.078;8.648;2023-04-21T07:09:01;100350.56;;;13.38;56.97
19005;BME280;9635;52.078;8.648;2023-04-21T07:14:06;100340.84;;;13.75;56.33
19005;BME280;9635;52.078;8.648;2023-04-21T07:19:09;100340.41;;;13.79;56.38
19005;BME280;9635;52.078;8.648;2023-04-21T07:24:12;100340.19;;;13.53;55.45
19005;BME280;9635;52.078;8.648;2023-04-21T07:29:16;100333.28;;;13.88;55.19
19005;BME280;9635;52.078;8.648;2023-04-21T07:34:19;100341.03;;;13.24;56.17
19005;BME280;9635;52.078;8.648;2023-04-21T07:39:22;100324.84;;;13.05;56.29
19005;BME280;9635;52.078;8.648;2023-04-21T07:44:26;100331.97;;;13.06;56.81
19005;BME280;9635;52.078;8.648;2023-04-21T07:49:29;100343.16;;;12.92;57.00
19005;BME280;9635;52.078;8.648;2023-04-21T07:54:32;100341.72;;;13.26;56.09
19005;BME280;9635;52.078;8.648;2023-04-21T07:59:36;100341.28;;;13.70;55.00
19005;BME280;9635;52.078;8.648;2023-04-21T08:04:39;100325.97;;;14.35;53.73
19005;BME280;9635;52.078;8.648;2023-04-21T08:09:42;100322.03;;;14.57;52.83
19005;BME280;9635;52.078;8.648;2023-04-21T08:14:47;100318.34;;;14.76;53.09
19005;BME280;9635;52.078;8.648;2023-04-21T08:19:49;100315.72;;;14.85;51.85
19005;BME280;9635;52.078;8.648;2023-04-21T08:24:52;100317.50;;;14.94;52.43
19005;BME280;9635;52.078;8.648;2023-04-21T08:29:57;100327.56;;;14.56;52.75
19005;BME280;9635;52.078;8.648;2023-04-21T08:35:00;100320.00;;;15.67;51.01
19005;BME280;9635;52.078;8.648;2023-04-21T08:40:04;100315.53;;;16.52;48.32
19005;BME280;9635;52.078;8.648;2023-04-21T08:45:10;100311.88;;;16.94;47.51
19005;BME280;9635;52.078;8.648;2023-04-21T08:50:13;100313.00;;;15.38;49.50
19005;BME280;9635;52.078;8.648;2023-04-21T08:55:16;100306.66;;;15.30;50.67
19005;BME280;9635;52.078;8.648;2023-04-21T09:00:21;100313.63;;;15.50;50.68
19005;BME280;9635;52.078;8.648;2023-04-21T09:05:26;100298.53;;;16.42;49.30
19005;BME280;9635;52.078;8.648;2023-04-21T09:10:29;100290.41;;;16.42;47.68
19005;BME280;9635;52.078;8.648;2023-04-21T09:15:38;100294.25;;;16.98;47.41
19005;BME280;9635;52.078;8.648;2023-04-21T09:20:43;100270.59;;;17.97;45.57
19005;BME280;9635;52.078;8.648;2023-04-21T09:25:46;100275.25;;;18.51;44.42
19005;BME280;9635;52.078;8.648;2023-04-21T09:30:54;100276.44;;;18.48;44.12
19005;BME280;9635;52.078;8.648;2023-04-21T09:35:59;100270.09;;;18.33;43.92
19005;BME280;9635;52.078;8.648;2023-04-21T09:41:03;100271.41;;;18.68;43.64
19005;BME280;9635;52.078;8.648;2023-04-21T09:46:08;100264.66;;;18.33;44.19
19005;BME280;9635;52.078;8.648;2023-04-21T09:51:14;100265.19;;;18.60;43.75
19005;BME280;9635;52.078;8.648;2023-04-21T09:56:20;100259.47;;;19.00;42.90
19005;BME280;9635;52.078;8.648;2023-04-21T10:01:28;100255.31;;;18.90;42.84
19005;BME280;9635;52.078;8.648;2023-04-21T10:06:32;100246.69;;;19.39;42.01
19005;BME280;9635;52.078;8.648;2023-04-21T10:11:36;100241.16;;;19.47;41.36
19005;BME280;9635;52.078;8.648;2023-04-21T10:16:41;100251.28;;;19.23;41.81
19005;BME280;9635;52.078;8.648;2023-04-21T10:21:44;100238.56;;;19.98;40.95
19005;BME280;9635;52.078;8.648;2023-04-21T10:26:49;100212.31;;;20.63;39.94
19005;BME280;9635;52.078;8.648;2023-04-21T10:31:57;100215.34;;;20.53;39.51
19005;BME280;9635;52.078;8.648;2023-04-21T10:37:11;100213.84;;;20.72;38.86
19005;BME280;9635;52.078;8.648;2023-04-21T10:42:22;100207.59;;;21.21;38.19
19005;BME280;9635;52.078;8.648;2023-04-21T10:47:28;100203.13;;;20.92;38.87
19005;BME280;9635;52.078;8.648;2023-04-21T10:52:32;100190.69;;;20.90;38.47
19005;BME280;9635;52.078;8.648;2023-04-21T10:57:35;100174.34;;;21.46;37.80
19005;BME280;9635;52.078;8.648;2023-04-21T11:02:41;100176.53;;;21.99;36.89
19005;BME280;9635;52.078;8.648;2023-04-21T11:07:45;100159.91;;;22.75;35.96
19005;BME280;9635;52.078;8.648;2023-04-21T11:12:48;100158.22;;;23.07;34.87
19005;BME280;9635;52.078;8.648;2023-04-21T11:17:52;100146.97;;;23.62;33.82
19005;BME280;9635;52.078;8.648;2023-04-21T11:22:56;100140.09;;;24.29;32.90
19005;BME280;9635;52.078;8.648;2023-04-21T11:27:59;100139.03;;;23.99;33.06
19005;BME280;9635;52.078;8.648;2023-04-21T11:33:03;100125.16;;;24.25;32.78
19005;BME280;9635;52.078;8.648;2023-04-21T11:38:06;100125.22;;;23.60;33.02
19005;BME280;9635;52.078;8.648;2023-04-21T11:43:09;100115.41;;;23.06;34.78
19005;BME280;9635;52.078;8.648;2023-04-21T11:48:14;100103.75;;;24.02;33.23
19005;BME280;9635;52.078;8.648;2023-04-21T11:53:18;100102.06;;;21.90;34.39
19005;BME280;9635;52.078;8.648;2023-04-21T11:58:21;100102.41;;;22.62;34.42
19005;BME280;9635;52.078;8.648;2023-04-21T12:03:25;100093.84;;;23.56;31.81
19005;BME280;9635;52.078;8.648;2023-04-21T12:08:28;100097.75;;;22.49;33.70
19005;BME280;9635;52.078;8.648;2023-04-21T12:13:31;100089.78;;;22.47;32.56
19005;BME280;9635;52.078;8.648;2023-04-21T12:18:36;100075.56;;;23.30;30.73
19005;BME280;9635;52.078;8.648;2023-04-21T12:23:39;100070.69;;;23.39;31.16
19005;BME280;9635;52.078;8.648;2023-04-21T12:28:41;100054.72;;;24.19;30.01
19005;BME280;9635;52.078;8.648;2023-04-21T12:33:46;100054.34;;;23.64;30.27
19005;BME280;9635;52.078;8.648;2023-04-21T12:38:48;100054.78;;;22.96;31.91
19005;BME280;9635;52.078;8.648;2023-04-21T12:43:51;100035.75;;;23.34;31.91
19005;BME280;9635;52.078;8.648;2023-04-21T12:48:55;100034.50;;;24.07;31.39
19005;BME280;9635;52.078;8.648;2023-04-21T12:53:58;100035.97;;;24.66;30.24
19005;BME280;9635;52.078;8.648;2023-04-21T12:59:01;100030.84;;;22.45;32.65
19005;BME280;9635;52.078;8.648;2023-04-21T13:04:06;100029.56;;;22.41;32.89
19005;BME280;9635;52.078;8.648;2023-04-21T13:09:09;100017.34;;;23.41;31.22
19005;BME280;9635;52.078;8.648;2023-04-21T13:14:12;100012.47;;;23.88;30.51
19005;BME280;9635;52.078;8.648;2023-04-21T13:19:17;100013.97;;;24.48;29.58
19005;BME280;9635;52.078;8.648;2023-04-21T13:24:20;100008.53;;;24.09;28.68
19005;BME280;9635;52.078;8.648;2023-04-21T13:29:23;100002.22;;;23.26;29.64
19005;BME280;9635;52.078;8.648;2023-04-21T13:34:31;99999.69;;;23.37;29.47
19005;BME280;9635;52.078;8.648;2023-04-21T13:39:35;99996.06;;;22.72;30.01
19005;BME280;9635;52.078;8.648;2023-04-21T13:44:38;99981.78;;;22.17;32.76
19005;BME280;9635;52.078;8.648;2023-04-21T13:49:42;99973.75;;;21.75;33.11
19005;BME280;9635;52.078;8.648;2023-04-21T13:54:45;99980.72;;;22.31;31.61
19005;BME280;9635;52.078;8.648;2023-04-21T13:59:48;99972.78;;;23.08;30.27
19005;BME280;9635;52.078;8.648;2023-04-21T14:04:52;99953.56;;;22.29;32.14
19005;BME280;9635;52.078;8.648;2023-04-21T14:09:56;99947.28;;;22.02;31.60
19005;BME280;9635;52.078;8.648;2023-04-21T14:14:59;99947.47;;;22.21;32.23
19005;BME280;9635;52.078;8.648;2023-04-21T14:20:04;99945.56;;;22.61;31.20
19005;BME280;9635;52.078;8.648;2023-04-21T14:25:09;99925.34;;;21.56;33.17
19005;BME280;9635;52.078;8.648;2023-04-21T14:30:13;99927.81;;;21.37;32.96
19005;BME280;9635;52.078;8.648;2023-04-21T14:35:17;99917.72;;;21.31;33.75
19005;BME280;9635;52.078;8.648;2023-04-21T14:40:20;99919.88;;;22.42;32.71
19005;BME280;9635;52.078;8.648;2023-04-21T14:45:23;99903.91;;;21.73;33.52
19005;BME280;9635;52.078;8.648;2023-04-21T14:50:27;99913.00;;;21.86;33.27
19005;BME280;9635;52.078;8.648;2023-04-21T14:55:30;99915.31;;;20.67;32.17
19005;BME280;9635;52.078;8.648;2023-04-21T15:00:33;99914.53;;;20.79;32.73
19005;BME280;9635;52.078;8.648;2023-04-21T15:05:38;99904.47;;;20.39;33.33
19005;BME280;9635;52.078;8.648;2023-04-21T15:10:41;99887.06;;;21.69;31.13
19005;BME280;9635;52.078;8.648;2023-04-21T15:15:44;99899.94;;;21.82;31.58
19005;BME280;9635;52.078;8.648;2023-04-21T15:20:48;99890.41;;;22.58;31.45
19005;BME280;9635;52.078;8.648;2023-04-21T15:25:51;99884.06;;;23.54;30.71
19005;BME280;9635;52.078;8.648;2023-04-21T15:30:54;99875.31;;;22.22;31.32
19005;BME280;9635;52.078;8.648;2023-04-21T15:35:58;99872.97;;;21.52;33.07
19005;BME280;9635;52.078;8.648;2023-04-21T15:41:01;99861.50;;;21.02;33.36
19005;BME280;9635;52.078;8.648;2023-04-21T15:46:04;99854.47;;;21.61;32.50
19005;BME280;9635;52.078;8.648;2023-04-21T15:51:15;99865.78;;;20.70;34.17
19005;BME280;9635;52.078;8.648;2023-04-21T15:56:18;99858.78;;;20.95;34.49
19005;BME280;9635;52.078;8.648;2023-04-21T16:01:21;99854.63;;;21.19;33.85
19005;BME280;9635;52.078;8.648;2023-04-21T16:06:25;99851.72;;;21.21;34.30
19005;BME280;9635;52.078;8.648;2023-04-21T16:11:31;99850.72;;;21.88;33.93
19005;BME280;9635;52.078;8.648;2023-04-21T16:16:35;99843.31;;;21.36;34.05
19005;BME280;9635;52.078;8.648;2023-04-21T16:21:40;99841.56;;;21.01;34.04
19005;BME280;9635;52.078;8.648;2023-04-21T16:26:43;99838.31;;;20.78;34.72
19005;BME280;9635;52.078;8.648;2023-04-21T16:31:46;99828.16;;;20.52;35.37
19005;BME280;9635;52.078;8.648;2023-04-21T16:36:50;99829.34;;;19.80;35.73
19005;BME280;9635;52.078;8.648;2023-04-21T16:41:53;99824.94;;;19.79;35.86
19005;BME280;9635;52.078;8.648;2023-04-21T16:46:56;99817.25;;;20.52;35.03
19005;BME280;9635;52.078;8.648;2023-04-21T16:52:00;99805.72;;;19.87;36.20
19005;BME280;9635;52.078;8.648;2023-04-21T16:57:03;99802.03;;;19.45;37.02
19005;BME280;9635;52.078;8.648;2023-04-21T17:02:07;99800.88;;;18.90;37.24
19005;BME280;9635;52.078;8.648;2023-04-21T17:07:11;99817.94;;;18.84;37.84
19005;BME280;9635;52.078;8.648;2023-04-21T17:12:14;99806.69;;;19.30;37.18
19005;BME280;9635;52.078;8.648;2023-04-21T17:17:17;99802.44;;;19.42;36.65
19005;BME280;9635;52.078;8.648;2023-04-21T17:22:21;99801.94;;;19.38;36.81
19005;BME280;9635;52.078;8.648;2023-04-21T17:27:24;99791.13;;;19.66;36.63
19005;BME280;9635;52.078;8.648;2023-04-21T17:32:27;99797.88;;;19.28;36.99
19005;BME280;9635;52.078;8.648;2023-04-21T17:37:35;99799.22;;;19.17;37.36
19005;BME280;9635;52.078;8.648;2023-04-21T17:42:38;99789.97;;;19.11;37.58
19005;BME280;9635;52.078;8.648;2023-04-21T17:47:42;99783.88;;;18.88;37.84
19005;BME280;9635;52.078;8.648;2023-04-21T17:52:46;99786.78;;;18.50;38.19
19005;BME280;9635;52.078;8.648;2023-04-21T17:57:50;99782.97;;;18.00;38.62
19005;BME280;9635;52.078;8.648;2023-04-21T18:07:57;99774.00;;;17.99;38.77
19005;BME280;9635;52.078;8.648;2023-04-21T18:13:01;99779.88;;;18.03;39.06
19005;BME280;9635;52.078;8.648;2023-04-21T18:18:04;99781.44;;;17.67;39.15
19005;BME280;9635;52.078;8.648;2023-04-21T18:23:08;99779.00;;;17.35;39.46
19005;BME280;9635;52.078;8.648;2023-04-21T18:28:11;99790.25;;;17.32;39.62
19005;BME280;9635;52.078;8.648;2023-04-21T18:33:14;99785.34;;;17.27;39.98
19005;BME280;9635;52.078;8.648;2023-04-21T18:38:20;99784.66;;;17.02;40.27
19005;BME280;9635;52.078;8.648;2023-04-21T18:43:23;99788.13;;;16.96;40.27
19005;BME280;9635;52.078;8.648;2023-04-21T18:48:25;99789.22;;;16.87;40.63
19005;BME280;9635;52.078;8.648;2023-04-21T18:53:30;99793.13;;;16.84;40.76
19005;BME280;9635;52.078;8.648;2023-04-21T18:58:33;99787.28;;;16.64;41.20
19005;BME280;9635;52.078;8.648;2023-04-21T19:03:36;99797.19;;;16.57;41.33
19005;BME280;9635;52.078;8.648;2023-04-21T19:08:40;99797.34;;;16.55;41.47
19005;BME280;9635;52.078;8.648;2023-04-21T19:13:43;99799.94;;;16.49;41.43
19005;BME280;9635;52.078;8.648;2023-04-21T19:18:48;99802.69;;;16.41;41.62
19005;BME280;9635;52.078;8.648;2023-04-21T19:23:54;99800.16;;;16.31;42.05
19005;BME280;9635;52.078;8.648;2023-04-21T19:28:58;99802.88;;;16.31;42.11
19005;BME280;9635;52.078;8.648;2023-04-21T19:34:01;99795.78;;;16.22;42.07
19005;BME280;9635;52.078;8.648;2023-04-21T19:39:05;99789.22;;;16.08;42.05
19005;BME280;9635;52.078;8.648;2023-04-21T19:44:09;99792.09;;;16.06;42.08
19005;BME280;9635;52.078;8.648;2023-04-21T19:49:12;99790.09;;;16.00;42.56
19005;BME280;9635;52.078;8.648;2023-04-21T19:54:17;99785.88;;;15.89;42.59
19005;BME280;9635;52.078;8.648;2023-04-21T19:59:19;99790.47;;;15.89;42.96
19005;BME280;9635;52.078;8.648;2023-04-21T20:04:23;99790.97;;;15.84;42.91
19005;BME280;9635;52.078;8.648;2023-04-21T20:09:27;99789.31;;;15.67;43.18
19005;BME280;9635;52.078;8.648;2023-04-21T20:14:30;99784.75;;;15.67;43.03
19005;BME280;9635;52.078;8.648;2023-04-21T20:19:33;99795.44;;;15.61;43.26
19005;BME280;9635;52.078;8.648;2023-04-21T20:24:38;99790.38;;;15.58;43.62
19005;BME280;9635;52.078;8.648;2023-04-21T20:29:42;99791.22;;;15.50;43.63
19005;BME280;9635;52.078;8.648;2023-04-21T20:34:45;99791.56;;;15.39;44.00
19005;BME280;9635;52.078;8.648;2023-04-21T20:39:49;99788.69;;;15.40;43.81
19005;BME280;9635;52.078;8.648;2023-04-21T20:44:52;99783.22;;;15.32;44.05
19005;BME280;9635;52.078;8.648;2023-04-21T20:49:55;99789.66;;;15.23;44.11
19005;BME280;9635;52.078;8.648;2023-04-21T20:55:00;99780.53;;;15.16;44.50
19005;BME280;9635;52.078;8.648;2023-04-21T21:00:04;99785.25;;;15.05;44.89
19005;BME280;9635;52.078;8.648;2023-04-21T21:05:08;99788.47;;;15.01;44.79
19005;BME280;9635;52.078;8.648;2023-04-21T21:16:17;99842.16;;;14.03;47.78
19005;BME280;9635;52.078;8.648;2023-04-21T21:21:20;99811.03;;;14.51;46.38
19005;BME280;9635;52.078;8.648;2023-04-21T21:26:22;99792.16;;;14.83;45.52
19005;BME280;9635;52.078;8.648;2023-04-21T21:31:26;99800.25;;;14.75;45.52
19005;BME280;9635;52.078;8.648;2023-04-21T21:36:31;99805.38;;;14.95;44.92
19005;BME280;9635;52.078;8.648;2023-04-21T21:41:34;99800.13;;;14.93;44.79
19005;BME280;9635;52.078;8.648;2023-04-21T21:46:38;99784.72;;;14.86;45.07
19005;BME280;9635;52.078;8.648;2023-04-21T21:51:42;99786.91;;;14.74;45.48
19005;BME280;9635;52.078;8.648;2023-04-21T21:56:45;99788.38;;;14.52;46.17
19005;BME280;9635;52.078;8.648;2023-04-21T22:01:49;99783.09;;;14.42;46.45
19005;BME280;9635;52.078;8.648;2023-04-21T22:06:52;99776.78;;;14.33;46.72
19005;BME280;9635;52.078;8.648;2023-04-21T22:11:55;99802.81;;;14.34;46.78
19005;BME280;9635;52.078;8.648;2023-04-21T22:16:59;99848.59;;;13.04;49.88
19005;BME280;9635;52.078;8.648;2023-04-21T22:22:03;99837.19;;;13.90;47.02
19005;BME280;9635;52.078;8.648;2023-04-21T22:27:06;99809.41;;;14.82;44.92
19005;BME280;9635;52.078;8.648;2023-04-21T22:32:10;99803.16;;;14.90;44.85
19005;BME280;9635;52.078;8.648;2023-04-21T22:37:13;99781.16;;;14.69;45.40
19005;BME280;9635;52.078;8.648;2023-04-21T22:42:16;99791.75;;;14.46;46.24
19005;BME280;9635;52.078;8.648;2023-04-21T22:47:20;99798.47;;;14.42;46.24
19005;BME280;9635;52.078;8.648;2023-04-21T22:52:23;99796.88;;;14.31;46.83
19005;BME280;9635;52.078;8.648;2023-04-21T22:57:27;99789.41;;;14.16;47.09
19005;BME280;9635;52.078;8.648;2023-04-21T23:02:31;99779.41;;;14.09;46.99
19005;BME280;9635;52.078;8.648;2023-04-21T23:07:34;99783.22;;;13.98;47.48
19005;BME280;9635;52.078;8.648;2023-04-21T23:12:37;99785.78;;;14.00;47.36
19005;BME280;9635;52.078;8.648;2023-04-21T23:17:42;99780.16;;;13.93;47.50
19005;BME280;9635;52.078;8.648;2023-04-21T23:22:45;99780.28;;;13.83;47.81
19005;BME280;9635;52.078;8.648;2023-04-21T23:27:48;99779.19;;;13.68;48.10
19005;BME280;9635;52.078;8.648;2023-04-21T23:32:52;99781.63;;;13.53;48.53
19005;BME280;9635;52.078;8.648;2023-04-21T23:37:55;99779.19;;;13.42;48.90
19005;BME280;9635;52.078;8.648;2023-04-21T23:42:58;99776.78;;;13.21;49.61
19005;BME280;9635;52.078;8.648;2023-04-21T23:48:02;99765.94;;;13.13;49.94
19005;BME280;9635;52.078;8.648;2023-04-21T23:53:05;99770.19;;;12.97;50.08
19005;BME280;9635;52.078;8.648;2023-04-21T23:58:08;99760.88;;;12.92;50.53
